sensor_id;sensor_type;location;lat;lon;timestamp;temperature;humidity
11934;DHT22;6026;48.784;9.198;2022-10-23T00:02:24;12.50;99.90
11934;DHT22;6026;48.784;9.198;2022-10-23T00:04:50;12.50;99.90
11934;DHT22;6026;48.784;9.198;2022-10-23T00:07:17;12.50;99.90
11934;DHT22;6026;48.784;9.198;2022-10-23T00:09:42;12.50;99.90
11934;DHT22;6026;48.784;9.198;2022-10-23T00:12:08;12.40;99.90
11934;DHT22;6026;48.784;9.198;2022-10-23T00:14:33;12.40;99.90
11934;DHT22;6026;48.784;9.198;2022-10-23T00:16:59;12.40;99.90
11934;DHT22;6026;48.784;9.198;2022-10-23T00:19:24;12.30;99.90
11934;DHT22;6026;48.784;9.198;2022-10-23T00:21:50;12.30;99.90
11934;DHT22;6026;48.784;9.198;2022-10-23T00:24:16;12.30;99.90
11934;DHT22;6026;48.784;9.198;2022-10-23T00:26:42;12.30;99.90
11934;DHT22;6026;48.784;9.198;2022-10-23T00:29:08;12.20;99.90
11934;DHT22;6026;48.784;9.198;2022-10-23T00:31:34;12.30;99.90
11934;DHT22;6026;48.784;9.198;2022-10-23T00:34:00;12.20;99.90
11934;DHT22;6026;48.784;9.198;2022-10-23T00:36:25;12.20;99.90
11934;DHT22;6026;48.784;9.198;2022-10-23T00:38:51;12.10;99.90
11934;DHT22;6026;48.784;9.198;2022-10-23T00:41:21;12.20;99.90
11934;DHT22;6026;48.784;9.198;2022-10-23T00:46:41;12.20;99.90
11934;DHT22;6026;48.784;9.198;2022-10-23T00:49:08;12.20;99.90
11934;DHT22;6026;48.784;9.198;2022-10-23T00:51:46;12.20;99.90
11934;DHT22;6026;48.784;9.198;2022-10-23T00:54:13;12.10;99.90
11934;DHT22;6026;48.784;9.198;2022-10-23T00:56:41;12.10;99.90
11934;DHT22;6026;48.784;9.198;2022-10-23T01:02:18;12.00;99.90
11934;DHT22;6026;48.784;9.198;2022-10-23T01:04:44;12.00;99.90
11934;DHT22;6026;48.784;9.198;2022-10-23T01:07:18;11.90;99.90
11934;DHT22;6026;48.784;9.198;2022-10-23T01:10:02;11.90;99.90
11934;DHT22;6026;48.784;9.198;2022-10-23T01:12:42;11.90;99.90
11934;DHT22;6026;48.784;9.198;2022-10-23T01:15:19;11.90;99.90
11934;DHT22;6026;48.784;9.198;2022-10-23T01:18:01;11.90;99.90
11934;DHT22;6026;48.784;9.198;2022-10-23T01:26:08;11.80;99.90
11934;DHT22;6026;48.784;9.198;2022-10-23T01:28:41;11.80;99.90
11934;DHT22;6026;48.784;9.198;2022-10-23T01:31:13;11.80;99.90
11934;DHT22;6026;48.784;9.198;2022-10-23T01:33:44;11.70;99.90
11934;DHT22;6026;48.784;9.198;2022-10-23T01:36:14;11.70;99.90
11934;DHT22;6026;48.784;9.198;2022-10-23T01:38:45;11.70;99.90
11934;DHT22;6026;48.784;9.198;2022-10-23T01:41:16;11.70;99.90
11934;DHT22;6026;48.784;9.198;2022-10-23T01:43:46;11.70;99.90
11934;DHT22;6026;48.784;9.198;2022-10-23T01:46:16;11.60;99.90
11934;DHT22;6026;48.784;9.198;2022-10-23T01:48:48;11.60;99.90
11934;DHT22;6026;48.784;9.198;2022-10-23T01:51:16;11.60;99.90
11934;DHT22;6026;48.784;9.198;2022-10-23T01:53:43;11.60;99.90
11934;DHT22;6026;48.784;9.198;2022-10-23T01:56:14;11.50;99.90
11934;DHT22;6026;48.784;9.198;2022-10-23T01:58:46;11.50;99.90
11934;DHT22;6026;48.784;9.198;2022-10-23T02:01:13;11.50;99.90
11934;DHT22;6026;48.784;9.198;2022-10-23T02:03:40;11.50;99.90
11934;DHT22;6026;48.784;9.198;2022-10-23T02:06:07;11.50;99.90
11934;DHT22;6026;48.784;9.198;2022-10-23T02:08:33;11.50;99.90
11934;DHT22;6026;48.784;9.198;2022-10-23T02:11:17;11.50;99.90
11934;DHT22;6026;48.784;9.198;2022-10-23T02:13:50;11.50;99.90
11934;DHT22;6026;48.784;9.198;2022-10-23T02:19:20;11.50;99.90
11934;DHT22;6026;48.784;9.198;2022-10-23T02:24:30;11.40;99.90
11934;DHT22;6026;48.784;9.198;2022-10-23T02:27:02;11.40;99.90
11934;DHT22;6026;48.784;9.198;2022-10-23T02:29:44;11.40;99.90
11934;DHT22;6026;48.784;9.198;2022-10-23T02:32:12;11.40;99.90
11934;DHT22;6026;48.784;9.198;2022-10-23T02:34:39;11.40;99.90
11934;DHT22;6026;48.784;9.198;2022-10-23T02:37:05;11.40;99.90
11934;DHT22;6026;48.784;9.198;2022-10-23T02:39:30;11.40;99.90
11934;DHT22;6026;48.784;9.198;2022-10-23T02:42:08;11.40;99.90
11934;DHT22;6026;48.784;9.198;2022-10-23T02:44:43;11.40;99.90
11934;DHT22;6026;48.784;9.198;2022-10-23T02:49:53;11.40;99.90
11934;DHT22;6026;48.784;9.198;2022-10-23T03:01:25;11.40;99.90
11934;DHT22;6026;48.784;9.198;2022-10-23T03:03:53;11.40;99.90
11934;DHT22;6026;48.784;9.198;2022-10-23T03:06:19;11.40;99.90
11934;DHT22;6026;48.784;9.198;2022-10-23T03:09:04;11.40;99.90
11934;DHT22;6026;48.784;9.198;2022-10-23T03:11:30;11.30;99.90
11934;DHT22;6026;48.784;9.198;2022-10-23T03:13:56;11.40;99.90
11934;DHT22;6026;48.784;9.198;2022-10-23T03:16:21;11.40;99.90
11934;DHT22;6026;48.784;9.198;2022-10-23T03:18:47;11.40;99.90
11934;DHT22;6026;48.784;9.198;2022-10-23T03:21:12;11.30;99.90
11934;DHT22;6026;48.784;9.198;2022-10-23T03:23:38;11.30;99.90
11934;DHT22;6026;48.784;9.198;2022-10-23T03:26:04;11.30;99.90
11934;DHT22;6026;48.784;9.198;2022-10-23T03:28:29;11.30;99.90
11934;DHT22;6026;48.784;9.198;2022-10-23T03:30:55;11.30;99.90
11934;DHT22;6026;48.784;9.198;2022-10-23T03:33:21;11.20;99.90
11934;DHT22;6026;48.784;9.198;2022-10-23T03:35:47;11.20;99.90
11934;DHT22;6026;48.784;9.198;2022-10-23T03:38:13;11.20;99.90
11934;DHT22;6026;48.784;9.198;2022-10-23T03:40:39;11.20;99.90
11934;DHT22;6026;48.784;9.198;2022-10-23T03:43:04;11.20;99.90
11934;DHT22;6026;48.784;9.198;2022-10-23T03:45:30;11.20;99.90
11934;DHT22;6026;48.784;9.198;2022-10-23T03:47:57;11.20;99.90
11934;DHT22;6026;48.784;9.198;2022-10-23T03:50:22;11.20;99.90
11934;DHT22;6026;48.784;9.198;2022-10-23T03:52:48;11.20;99.90
11934;DHT22;6026;48.784;9.198;2022-10-23T03:55:13;11.20;99.90
11934;DHT22;6026;48.784;9.198;2022-10-23T03:57:39;11.30;99.90
11934;DHT22;6026;48.784;9.198;2022-10-23T04:00:05;11.30;99.90
11934;DHT22;6026;48.784;9.198;2022-10-23T04:02:31;11.30;99.90
11934;DHT22;6026;48.784;9.198;2022-10-23T04:04:56;11.40;99.90
11934;DHT22;6026;48.784;9.198;2022-10-23T04:07:22;11.40;99.90
11934;DHT22;6026;48.784;9.198;2022-10-23T04:09:48;11.40;99.90
11934;DHT22;6026;48.784;9.198;2022-10-23T04:12:13;11.40;99.90
11934;DHT22;6026;48.784;9.198;2022-10-23T04:14:39;11.40;99.90
11934;DHT22;6026;48.784;9.198;2022-10-23T04:17:04;11.40;99.90
11934;DHT22;6026;48.784;9.198;2022-10-23T04:19:30;11.40;99.90
11934;DHT22;6026;48.784;9.198;2022-10-23T04:21:56;11.40;99.90
11934;DHT22;6026;48.784;9.198;2022-10-23T04:24:23;11.40;99.90
11934;DHT22;6026;48.784;9.198;2022-10-23T04:26:49;11.30;99.90
11934;DHT22;6026;48.784;9.198;2022-10-23T04:29:16;11.30;99.90
11934;DHT22;6026;48.784;9.198;2022-10-23T04:31:42;11.40;99.90
11934;DHT22;6026;48.784;9.198;2022-10-23T04:34:07;11.30;99.90
11934;DHT22;6026;48.784;9.198;2022-10-23T04:36:33;11.30;99.90
11934;DHT22;6026;48.784;9.198;2022-10-23T04:38:58;11.30;99.90
11934;DHT22;6026;48.784;9.198;2022-10-23T04:41:24;11.30;99.90
11934;DHT22;6026;48.784;9.198;2022-10-23T04:43:49;11.30;99.90
11934;DHT22;6026;48.784;9.198;2022-10-23T04:46:15;11.30;99.90
11934;DHT22;6026;48.784;9.198;2022-10-23T04:48:41;11.30;99.90
11934;DHT22;6026;48.784;9.198;2022-10-23T04:51:06;11.30;99.90
11934;DHT22;6026;48.784;9.198;2022-10-23T04:53:32;11.30;99.90
11934;DHT22;6026;48.784;9.198;2022-10-23T04:55:58;11.30;99.90
11934;DHT22;6026;48.784;9.198;2022-10-23T04:58:25;11.30;99.90
11934;DHT22;6026;48.784;9.198;2022-10-23T05:00:52;11.30;99.90
11934;DHT22;6026;48.784;9.198;2022-10-23T05:03:20;11.30;99.90
11934;DHT22;6026;48.784;9.198;2022-10-23T05:05:46;11.40;99.90
11934;DHT22;6026;48.784;9.198;2022-10-23T05:08:12;11.40;99.90
11934;DHT22;6026;48.784;9.198;2022-10-23T05:10:37;11.50;99.90
11934;DHT22;6026;48.784;9.198;2022-10-23T05:13:03;11.40;99.90
11934;DHT22;6026;48.784;9.198;2022-10-23T05:15:29;11.40;99.90
11934;DHT22;6026;48.784;9.198;2022-10-23T05:17:59;11.40;99.90
11934;DHT22;6026;48.784;9.198;2022-10-23T05:20:30;11.40;99.90
11934;DHT22;6026;48.784;9.198;2022-10-23T05:22:58;11.40;99.90
11934;DHT22;6026;48.784;9.198;2022-10-23T05:25:55;11.40;99.90
11934;DHT22;6026;48.784;9.198;2022-10-23T05:28:21;11.40;99.90
11934;DHT22;6026;48.784;9.198;2022-10-23T05:30:47;11.40;99.90
11934;DHT22;6026;48.784;9.198;2022-10-23T05:33:13;11.40;99.90
11934;DHT22;6026;48.784;9.198;2022-10-23T05:35:40;11.40;99.90
11934;DHT22;6026;48.784;9.198;2022-10-23T05:38:07;11.40;99.90
11934;DHT22;6026;48.784;9.198;2022-10-23T05:40:33;11.40;99.90
11934;DHT22;6026;48.784;9.198;2022-10-23T05:42:58;11.40;99.90
11934;DHT22;6026;48.784;9.198;2022-10-23T05:45:24;11.30;99.90
11934;DHT22;6026;48.784;9.198;2022-10-23T05:47:50;11.30;99.90
11934;DHT22;6026;48.784;9.198;2022-10-23T05:50:15;11.30;99.90
11934;DHT22;6026;48.784;9.198;2022-10-23T05:52:41;11.30;99.90
11934;DHT22;6026;48.784;9.198;2022-10-23T05:55:09;11.40;99.90
11934;DHT22;6026;48.784;9.198;2022-10-23T05:57:35;11.40;99.90
11934;DHT22;6026;48.784;9.198;2022-10-23T06:00:00;11.50;99.90
11934;DHT22;6026;48.784;9.198;2022-10-23T06:02:26;11.40;99.90
11934;DHT22;6026;48.784;9.198;2022-10-23T06:04:52;11.40;99.90
11934;DHT22;6026;48.784;9.198;2022-10-23T06:07:25;11.40;99.90
11934;DHT22;6026;48.784;9.198;2022-10-23T06:09:51;11.40;99.90
11934;DHT22;6026;48.784;9.198;2022-10-23T06:12:18;11.50;99.90
11934;DHT22;6026;48.784;9.198;2022-10-23T06:14:43;11.50;99.90
11934;DHT22;6026;48.784;9.198;2022-10-23T06:17:09;11.50;99.90
11934;DHT22;6026;48.784;9.198;2022-10-23T06:19:34;11.50;99.90
11934;DHT22;6026;48.784;9.198;2022-10-23T06:22:00;11.40;99.90
11934;DHT22;6026;48.784;9.198;2022-10-23T06:24:25;11.40;99.90
11934;DHT22;6026;48.784;9.198;2022-10-23T06:26:51;11.40;99.90
11934;DHT22;6026;48.784;9.198;2022-10-23T06:29:17;11.50;99.90
11934;DHT22;6026;48.784;9.198;2022-10-23T06:31:42;11.40;99.90
11934;DHT22;6026;48.784;9.198;2022-10-23T06:34:10;11.50;99.90
11934;DHT22;6026;48.784;9.198;2022-10-23T06:36:36;11.50;99.90
11934;DHT22;6026;48.784;9.198;2022-10-23T06:39:03;11.50;99.90
11934;DHT22;6026;48.784;9.198;2022-10-23T06:41:28;11.60;99.90
11934;DHT22;6026;48.784;9.198;2022-10-23T06:43:54;11.60;99.90
11934;DHT22;6026;48.784;9.198;2022-10-23T06:46:20;11.60;99.90
11934;DHT22;6026;48.784;9.198;2022-10-23T06:48:46;11.70;99.90
11934;DHT22;6026;48.784;9.198;2022-10-23T06:51:14;11.70;99.90
11934;DHT22;6026;48.784;9.198;2022-10-23T06:53:41;11.70;99.90
11934;DHT22;6026;48.784;9.198;2022-10-23T06:56:07;11.80;99.90
11934;DHT22;6026;48.784;9.198;2022-10-23T06:58:35;11.80;99.90
11934;DHT22;6026;48.784;9.198;2022-10-23T07:01:23;11.80;99.90
11934;DHT22;6026;48.784;9.198;2022-10-23T07:03:49;11.90;99.90
11934;DHT22;6026;48.784;9.198;2022-10-23T07:06:14;12.00;99.90
11934;DHT22;6026;48.784;9.198;2022-10-23T07:08:40;12.10;99.90
11934;DHT22;6026;48.784;9.198;2022-10-23T07:11:08;12.10;99.90
11934;DHT22;6026;48.784;9.198;2022-10-23T07:13:35;12.20;99.90
11934;DHT22;6026;48.784;9.198;2022-10-23T07:16:14;12.30;99.90
11934;DHT22;6026;48.784;9.198;2022-10-23T07:18:41;12.40;99.90
11934;DHT22;6026;48.784;9.198;2022-10-23T07:21:17;12.50;99.90
11934;DHT22;6026;48.784;9.198;2022-10-23T07:23:43;12.60;99.90
11934;DHT22;6026;48.784;9.198;2022-10-23T07:26:11;12.80;99.90
11934;DHT22;6026;48.784;9.198;2022-10-23T07:28:40;12.90;99.90
11934;DHT22;6026;48.784;9.198;2022-10-23T07:31:06;13.00;99.90
11934;DHT22;6026;48.784;9.198;2022-10-23T07:33:32;13.00;99.90
11934;DHT22;6026;48.784;9.198;2022-10-23T07:35:57;13.10;99.90
11934;DHT22;6026;48.784;9.198;2022-10-23T07:38:23;13.20;99.90
11934;DHT22;6026;48.784;9.198;2022-10-23T07:40:48;13.30;99.90
11934;DHT22;6026;48.784;9.198;2022-10-23T07:43:14;13.30;99.90
11934;DHT22;6026;48.784;9.198;2022-10-23T07:45:45;13.50;99.90
11934;DHT22;6026;48.784;9.198;2022-10-23T07:51:32;13.90;99.90
11934;DHT22;6026;48.784;9.198;2022-10-23T07:53:57;14.30;99.90
11934;DHT22;6026;48.784;9.198;2022-10-23T07:56:25;14.60;99.90
11934;DHT22;6026;48.784;9.198;2022-10-23T07:58:54;15.00;99.90
11934;DHT22;6026;48.784;9.198;2022-10-23T08:01:35;15.30;99.90
11934;DHT22;6026;48.784;9.198;2022-10-23T08:04:01;15.70;99.90
11934;DHT22;6026;48.784;9.198;2022-10-23T08:06:27;16.00;99.90
11934;DHT22;6026;48.784;9.198;2022-10-23T08:08:53;16.50;99.90
11934;DHT22;6026;48.784;9.198;2022-10-23T08:11:21;17.00;99.90
11934;DHT22;6026;48.784;9.198;2022-10-23T08:13:54;17.30;99.90
11934;DHT22;6026;48.784;9.198;2022-10-23T08:16:21;17.60;99.90
11934;DHT22;6026;48.784;9.198;2022-10-23T08:18:47;17.80;99.90
11934;DHT22;6026;48.784;9.198;2022-10-23T08:21:14;18.10;99.90
11934;DHT22;6026;48.784;9.198;2022-10-23T08:24:10;18.50;99.90
11934;DHT22;6026;48.784;9.198;2022-10-23T08:26:38;18.80;99.90
11934;DHT22;6026;48.784;9.198;2022-10-23T08:29:04;19.10;99.90
11934;DHT22;6026;48.784;9.198;2022-10-23T08:31:29;19.60;99.90
11934;DHT22;6026;48.784;9.198;2022-10-23T08:33:55;20.00;99.90
11934;DHT22;6026;48.784;9.198;2022-10-23T08:36:23;20.60;99.90
11934;DHT22;6026;48.784;9.198;2022-10-23T08:38:51;20.80;99.90
11934;DHT22;6026;48.784;9.198;2022-10-23T08:41:46;20.80;99.90
11934;DHT22;6026;48.784;9.198;2022-10-23T08:47:20;20.20;99.90
11934;DHT22;6026;48.784;9.198;2022-10-23T08:49:56;19.90;99.90
11934;DHT22;6026;48.784;9.198;2022-10-23T08:52:51;19.70;99.90
11934;DHT22;6026;48.784;9.198;2022-10-23T08:55:31;19.60;99.90
11934;DHT22;6026;48.784;9.198;2022-10-23T08:58:36;19.70;99.90
11934;DHT22;6026;48.784;9.198;2022-10-23T09:01:36;19.70;99.90
11934;DHT22;6026;48.784;9.198;2022-10-23T09:04:03;19.70;99.90
11934;DHT22;6026;48.784;9.198;2022-10-23T09:06:39;20.00;99.90
11934;DHT22;6026;48.784;9.198;2022-10-23T09:12:20;20.80;99.90
11934;DHT22;6026;48.784;9.198;2022-10-23T09:17:44;21.50;99.90
11934;DHT22;6026;48.784;9.198;2022-10-23T09:20:22;21.90;99.90
11934;DHT22;6026;48.784;9.198;2022-10-23T09:22:52;22.60;99.90
11934;DHT22;6026;48.784;9.198;2022-10-23T09:25:22;23.00;99.90
11934;DHT22;6026;48.784;9.198;2022-10-23T09:27:52;23.20;99.90
11934;DHT22;6026;48.784;9.198;2022-10-23T09:30:36;23.50;99.90
11934;DHT22;6026;48.784;9.198;2022-10-23T09:33:24;24.00;99.90
11934;DHT22;6026;48.784;9.198;2022-10-23T09:38:38;24.20;99.90
11934;DHT22;6026;48.784;9.198;2022-10-23T09:41:20;24.50;99.90
11934;DHT22;6026;48.784;9.198;2022-10-23T09:49:20;25.20;99.90
11934;DHT22;6026;48.784;9.198;2022-10-23T09:54:47;25.30;99.90
11934;DHT22;6026;48.784;9.198;2022-10-23T09:59:56;25.00;99.90
11934;DHT22;6026;48.784;9.198;2022-10-23T10:02:29;25.10;99.90
11934;DHT22;6026;48.784;9.198;2022-10-23T10:08:17;25.60;99.90
11934;DHT22;6026;48.784;9.198;2022-10-23T10:16:19;25.70;99.90
11934;DHT22;6026;48.784;9.198;2022-10-23T10:18:59;25.70;99.90
11934;DHT22;6026;48.784;9.198;2022-10-23T10:21:38;25.70;99.90
11934;DHT22;6026;48.784;9.198;2022-10-23T10:24:19;25.60;99.90
11934;DHT22;6026;48.784;9.198;2022-10-23T10:26:51;25.40;99.90
11934;DHT22;6026;48.784;9.198;2022-10-23T10:29:29;25.30;99.90
11934;DHT22;6026;48.784;9.198;2022-10-23T10:35:25;25.40;99.90
11934;DHT22;6026;48.784;9.198;2022-10-23T10:38:13;25.60;99.90
11934;DHT22;6026;48.784;9.198;2022-10-23T10:46:39;25.90;99.90
11934;DHT22;6026;48.784;9.198;2022-10-23T10:51:48;25.60;99.90
11934;DHT22;6026;48.784;9.198;2022-10-23T10:56:50;25.30;99.90
11934;DHT22;6026;48.784;9.198;2022-10-23T10:59:20;24.90;99.90
11934;DHT22;6026;48.784;9.198;2022-10-23T11:04:55;24.50;99.90
11934;DHT22;6026;48.784;9.198;2022-10-23T11:07:28;24.30;99.90
11934;DHT22;6026;48.784;9.198;2022-10-23T11:09:58;24.20;99.90
11934;DHT22;6026;48.784;9.198;2022-10-23T11:12:26;24.20;99.90
11934;DHT22;6026;48.784;9.198;2022-10-23T11:14:52;24.00;99.90
11934;DHT22;6026;48.784;9.198;2022-10-23T11:17:23;24.00;99.90
11934;DHT22;6026;48.784;9.198;2022-10-23T11:22:45;23.80;99.90
11934;DHT22;6026;48.784;9.198;2022-10-23T11:31:07;23.40;99.90
11934;DHT22;6026;48.784;9.198;2022-10-23T11:36:18;22.70;99.90
11934;DHT22;6026;48.784;9.198;2022-10-23T11:38:47;22.40;99.90
11934;DHT22;6026;48.784;9.198;2022-10-23T11:41:20;22.20;99.90
11934;DHT22;6026;48.784;9.198;2022-10-23T11:43:51;22.00;99.90
11934;DHT22;6026;48.784;9.198;2022-10-23T11:48:46;21.70;99.90
11934;DHT22;6026;48.784;9.198;2022-10-23T11:51:35;21.50;99.90
11934;DHT22;6026;48.784;9.198;2022-10-23T11:54:27;21.30;99.90
11934;DHT22;6026;48.784;9.198;2022-10-23T11:57:14;21.30;99.90
11934;DHT22;6026;48.784;9.198;2022-10-23T12:02:31;21.10;99.90
11934;DHT22;6026;48.784;9.198;2022-10-23T12:05:24;21.20;99.90
11934;DHT22;6026;48.784;9.198;2022-10-23T12:08:01;21.20;99.90
11934;DHT22;6026;48.784;9.198;2022-10-23T12:10:34;21.20;99.90
11934;DHT22;6026;48.784;9.198;2022-10-23T12:13:04;21.20;99.90
11934;DHT22;6026;48.784;9.198;2022-10-23T12:15:31;21.40;99.90
11934;DHT22;6026;48.784;9.198;2022-10-23T12:18:13;21.50;99.90
11934;DHT22;6026;48.784;9.198;2022-10-23T12:20:57;21.60;99.90
11934;DHT22;6026;48.784;9.198;2022-10-23T12:24:02;21.60;99.90
11934;DHT22;6026;48.784;9.198;2022-10-23T12:29:20;21.80;99.90
11934;DHT22;6026;48.784;9.198;2022-10-23T12:37:34;22.00;99.90
11934;DHT22;6026;48.784;9.198;2022-10-23T12:40:08;22.20;99.90
11934;DHT22;6026;48.784;9.198;2022-10-23T12:42:34;22.30;99.90
11934;DHT22;6026;48.784;9.198;2022-10-23T12:45:10;22.40;99.90
11934;DHT22;6026;48.784;9.198;2022-10-23T12:47:39;22.50;99.90
11934;DHT22;6026;48.784;9.198;2022-10-23T12:50:20;22.50;99.90
11934;DHT22;6026;48.784;9.198;2022-10-23T12:52:51;22.60;99.90
11934;DHT22;6026;48.784;9.198;2022-10-23T12:55:17;22.80;99.90
11934;DHT22;6026;48.784;9.198;2022-10-23T12:57:43;23.10;99.90
11934;DHT22;6026;48.784;9.198;2022-10-23T13:00:19;23.40;99.90
11934;DHT22;6026;48.784;9.198;2022-10-23T13:02:45;23.80;99.90
11934;DHT22;6026;48.784;9.198;2022-10-23T13:05:16;24.30;99.90
11934;DHT22;6026;48.784;9.198;2022-10-23T13:07:44;24.60;99.90
11934;DHT22;6026;48.784;9.198;2022-10-23T13:10:18;25.00;99.90
11934;DHT22;6026;48.784;9.198;2022-10-23T13:12:57;25.50;99.90
11934;DHT22;6026;48.784;9.198;2022-10-23T13:15:42;25.70;99.90
11934;DHT22;6026;48.784;9.198;2022-10-23T13:18:09;26.00;99.90
11934;DHT22;6026;48.784;9.198;2022-10-23T13:20:56;26.30;99.90
11934;DHT22;6026;48.784;9.198;2022-10-23T13:23:32;26.60;99.90
11934;DHT22;6026;48.784;9.198;2022-10-23T13:26:06;26.60;99.90
11934;DHT22;6026;48.784;9.198;2022-10-23T13:28:44;26.60;99.90
11934;DHT22;6026;48.784;9.198;2022-10-23T13:33:44;26.30;99.90
11934;DHT22;6026;48.784;9.198;2022-10-23T13:38:41;25.90;99.90
11934;DHT22;6026;48.784;9.198;2022-10-23T13:44:18;25.40;99.90
11934;DHT22;6026;48.784;9.198;2022-10-23T13:46:44;24.80;99.90
11934;DHT22;6026;48.784;9.198;2022-10-23T13:49:11;24.50;99.90
11934;DHT22;6026;48.784;9.198;2022-10-23T13:51:45;24.30;99.90
11934;DHT22;6026;48.784;9.198;2022-10-23T13:54:16;24.10;99.90
11934;DHT22;6026;48.784;9.198;2022-10-23T13:56:41;23.70;99.90
11934;DHT22;6026;48.784;9.198;2022-10-23T13:59:09;23.50;99.90
11934;DHT22;6026;48.784;9.198;2022-10-23T14:01:35;23.20;99.90
11934;DHT22;6026;48.784;9.198;2022-10-23T14:04:02;23.00;99.90
11934;DHT22;6026;48.784;9.198;2022-10-23T14:06:31;22.70;99.90
11934;DHT22;6026;48.784;9.198;2022-10-23T14:08:57;22.50;99.90
11934;DHT22;6026;48.784;9.198;2022-10-23T14:11:23;22.20;99.90
11934;DHT22;6026;48.784;9.198;2022-10-23T14:13:49;22.10;99.90
11934;DHT22;6026;48.784;9.198;2022-10-23T14:16:16;21.80;99.90
11934;DHT22;6026;48.784;9.198;2022-10-23T14:18:43;21.70;99.90
11934;DHT22;6026;48.784;9.198;2022-10-23T14:21:11;21.50;99.90
11934;DHT22;6026;48.784;9.198;2022-10-23T14:23:37;21.40;99.90
11934;DHT22;6026;48.784;9.198;2022-10-23T14:26:09;21.10;99.90
11934;DHT22;6026;48.784;9.198;2022-10-23T14:28:35;21.00;99.90
11934;DHT22;6026;48.784;9.198;2022-10-23T14:31:20;20.90;99.90
11934;DHT22;6026;48.784;9.198;2022-10-23T14:33:50;20.90;99.90
11934;DHT22;6026;48.784;9.198;2022-10-23T14:36:16;20.70;99.90
11934;DHT22;6026;48.784;9.198;2022-10-23T14:38:41;20.60;99.90
11934;DHT22;6026;48.784;9.198;2022-10-23T14:41:12;20.50;99.90
11934;DHT22;6026;48.784;9.198;2022-10-23T14:43:37;20.40;99.90
11934;DHT22;6026;48.784;9.198;2022-10-23T14:46:08;20.30;99.90
11934;DHT22;6026;48.784;9.198;2022-10-23T14:48:33;20.20;99.90
11934;DHT22;6026;48.784;9.198;2022-10-23T14:51:03;20.20;99.90
11934;DHT22;6026;48.784;9.198;2022-10-23T14:53:29;20.10;99.90
11934;DHT22;6026;48.784;9.198;2022-10-23T14:56:00;20.10;99.90
11934;DHT22;6026;48.784;9.198;2022-10-23T14:58:26;20.10;99.90
11934;DHT22;6026;48.784;9.198;2022-10-23T15:00:57;20.00;99.90
11934;DHT22;6026;48.784;9.198;2022-10-23T15:03:23;20.00;99.90
11934;DHT22;6026;48.784;9.198;2022-10-23T15:05:49;19.90;99.90
11934;DHT22;6026;48.784;9.198;2022-10-23T15:08:14;19.90;99.90
11934;DHT22;6026;48.784;9.198;2022-10-23T15:10:40;19.90;99.90
11934;DHT22;6026;48.784;9.198;2022-10-23T15:13:05;19.90;99.90
11934;DHT22;6026;48.784;9.198;2022-10-23T15:15:31;19.90;99.90
11934;DHT22;6026;48.784;9.198;2022-10-23T15:17:56;19.90;99.90
11934;DHT22;6026;48.784;9.198;2022-10-23T15:20:22;19.80;99.90
11934;DHT22;6026;48.784;9.198;2022-10-23T15:22:47;19.80;99.90
11934;DHT22;6026;48.784;9.198;2022-10-23T15:25:13;19.70;99.90
11934;DHT22;6026;48.784;9.198;2022-10-23T15:27:38;19.80;99.90
11934;DHT22;6026;48.784;9.198;2022-10-23T15:30:04;19.80;99.90
11934;DHT22;6026;48.784;9.198;2022-10-23T15:32:30;19.70;99.90
11934;DHT22;6026;48.784;9.198;2022-10-23T15:34:55;19.70;99.90
11934;DHT22;6026;48.784;9.198;2022-10-23T15:37:23;19.70;99.90
11934;DHT22;6026;48.784;9.198;2022-10-23T15:39:48;19.70;99.90
11934;DHT22;6026;48.784;9.198;2022-10-23T15:42:14;19.70;99.90
11934;DHT22;6026;48.784;9.198;2022-10-23T15:44:40;19.70;99.90
11934;DHT22;6026;48.784;9.198;2022-10-23T15:47:06;19.50;99.90
11934;DHT22;6026;48.784;9.198;2022-10-23T15:49:31;19.40;99.90
11934;DHT22;6026;48.784;9.198;2022-10-23T15:51:57;19.40;99.90
11934;DHT22;6026;48.784;9.198;2022-10-23T15:54:23;19.40;99.90
11934;DHT22;6026;48.784;9.198;2022-10-23T15:56:50;19.30;99.90
11934;DHT22;6026;48.784;9.198;2022-10-23T15:59:17;19.30;99.90
11934;DHT22;6026;48.784;9.198;2022-10-23T16:01:43;19.30;99.90
11934;DHT22;6026;48.784;9.198;2022-10-23T16:04:09;19.30;99.90
11934;DHT22;6026;48.784;9.198;2022-10-23T16:06:35;19.20;99.90
11934;DHT22;6026;48.784;9.198;2022-10-23T16:09:00;19.20;99.90
11934;DHT22;6026;48.784;9.198;2022-10-23T16:11:32;19.10;99.90
11934;DHT22;6026;48.784;9.198;2022-10-23T16:13:59;19.10;99.90
11934;DHT22;6026;48.784;9.198;2022-10-23T16:16:26;19.20;99.90
11934;DHT22;6026;48.784;9.198;2022-10-23T16:18:52;19.10;99.90
11934;DHT22;6026;48.784;9.198;2022-10-23T16:21:23;19.10;99.90
11934;DHT22;6026;48.784;9.198;2022-10-23T16:23:50;18.90;99.90
11934;DHT22;6026;48.784;9.198;2022-10-23T16:26:16;18.80;99.90
11934;DHT22;6026;48.784;9.198;2022-10-23T16:28:42;18.70;99.90
11934;DHT22;6026;48.784;9.198;2022-10-23T16:31:10;18.60;99.90
11934;DHT22;6026;48.784;9.198;2022-10-23T16:33:36;18.70;99.90
11934;DHT22;6026;48.784;9.198;2022-10-23T16:36:07;18.60;99.90
11934;DHT22;6026;48.784;9.198;2022-10-23T16:38:33;18.60;99.90
11934;DHT22;6026;48.784;9.198;2022-10-23T16:41:00;18.60;99.90
11934;DHT22;6026;48.784;9.198;2022-10-23T16:43:26;18.60;99.90
11934;DHT22;6026;48.784;9.198;2022-10-23T16:46:15;18.60;99.90
11934;DHT22;6026;48.784;9.198;2022-10-23T16:48:42;18.50;99.90
11934;DHT22;6026;48.784;9.198;2022-10-23T16:51:10;18.50;99.90
11934;DHT22;6026;48.784;9.198;2022-10-23T16:53:36;18.50;99.90
11934;DHT22;6026;48.784;9.198;2022-10-23T16:56:04;18.50;99.90
11934;DHT22;6026;48.784;9.198;2022-10-23T16:58:30;18.40;99.90
11934;DHT22;6026;48.784;9.198;2022-10-23T17:01:04;18.40;99.90
11934;DHT22;6026;48.784;9.198;2022-10-23T17:03:33;18.40;99.90
11934;DHT22;6026;48.784;9.198;2022-10-23T17:06:04;18.40;99.90
11934;DHT22;6026;48.784;9.198;2022-10-23T17:08:30;18.50;99.90
11934;DHT22;6026;48.784;9.198;2022-10-23T17:11:12;18.50;99.90
11934;DHT22;6026;48.784;9.198;2022-10-23T17:13:47;18.50;99.90
11934;DHT22;6026;48.784;9.198;2022-10-23T17:18:42;18.50;99.90
11934;DHT22;6026;48.784;9.198;2022-10-23T17:21:08;18.60;99.90
11934;DHT22;6026;48.784;9.198;2022-10-23T17:23:34;18.60;99.90
11934;DHT22;6026;48.784;9.198;2022-10-23T17:26:00;18.60;99.90
11934;DHT22;6026;48.784;9.198;2022-10-23T17:28:28;18.60;99.90
11934;DHT22;6026;48.784;9.198;2022-10-23T17:30:54;18.60;99.90
11934;DHT22;6026;48.784;9.198;2022-10-23T17:36:45;18.60;99.90
11934;DHT22;6026;48.784;9.198;2022-10-23T17:39:13;18.60;99.90
11934;DHT22;6026;48.784;9.198;2022-10-23T17:41:39;18.70;99.90
11934;DHT22;6026;48.784;9.198;2022-10-23T17:44:05;18.60;99.90
11934;DHT22;6026;48.784;9.198;2022-10-23T17:46:31;18.60;99.90
11934;DHT22;6026;48.784;9.198;2022-10-23T17:48:59;18.60;99.90
11934;DHT22;6026;48.784;9.198;2022-10-23T17:51:27;18.50;99.90
11934;DHT22;6026;48.784;9.198;2022-10-23T17:53:55;18.50;99.90
11934;DHT22;6026;48.784;9.198;2022-10-23T17:56:26;18.50;99.90
11934;DHT22;6026;48.784;9.198;2022-10-23T17:59:13;18.40;99.90
11934;DHT22;6026;48.784;9.198;2022-10-23T18:01:39;18.40;99.90